createdAt,value
2023-04-22T00:02:25.621Z,100.00
2023-04-22T00:04:57.719Z,100.00
2023-04-22T00:07:28.138Z,100.00
2023-04-22T00:10:00.958Z,100.00
2023-04-22T00:12:31.393Z,100.00
2023-04-22T00:15:01.578Z,100.00
2023-04-22T00:17:31.942Z,100.00
2023-04-22T00:20:02.310Z,100.00
2023-04-22T00:22:32.583Z,100.00
2023-04-22T00:25:05.342Z,100.00
2023-04-22T00:27:35.781Z,100.00
2023-04-22T00:30:06.051Z,100.00
2023-04-22T00:32:36.339Z,100.00
2023-04-22T00:35:06.741Z,100.00
2023-04-22T00:37:37.153Z,100.00
2023-04-22T00:40:11.767Z,100.00
2023-04-22T00:42:42.620Z,100.00
2023-04-22T00:45:15.583Z,100.00
2023-04-22T00:47:47.545Z,100.00
2023-04-22T00:50:18.584Z,100.00
2023-04-22T00:52:48.703Z,100.00
2023-04-22T00:55:21.747Z,100.00
2023-04-22T00:57:53.805Z,100.00
2023-04-22T01:00:29.345Z,100.00
2023-04-22T01:03:01.140Z,100.00
2023-04-22T01:05:33.995Z,100.00
2023-04-22T01:08:04.503Z,100.00
2023-04-22T01:10:38.391Z,100.00
2023-04-22T01:13:08.605Z,100.00
2023-04-22T01:15:39.303Z,100.00
2023-04-22T01:18:10.186Z,100.00
2023-04-22T01:20:40.992Z,100.00
2023-04-22T01:23:18.771Z,100.00
2023-04-22T01:25:49.529Z,100.00
2023-04-22T01:28:20.434Z,100.00
2023-04-22T01:30:52.646Z,100.00
2023-04-22T01:33:22.853Z,100.00
2023-04-22T01:35:53.113Z,100.00
2023-04-22T01:38:26.844Z,100.00
2023-04-22T01:40:57.398Z,100.00
2023-04-22T01:43:28.068Z,100.00
2023-04-22T01:46:00.309Z,100.00
2023-04-22T01:48:31.118Z,100.00
2023-04-22T01:51:01.435Z,100.00
2023-04-22T01:53:34.292Z,100.00
2023-04-22T01:56:05.045Z,100.00
2023-04-22T01:58:36.991Z,100.00
2023-04-22T02:01:08.404Z,100.00
2023-04-22T02:03:40.069Z,100.00
2023-04-22T02:06:10.941Z,100.00
2023-04-22T02:08:43.794Z,100.00
2023-04-22T02:11:16.247Z,100.00
2023-04-22T02:13:46.554Z,100.00
2023-04-22T02:16:17.616Z,100.00
2023-04-22T02:18:47.823Z,100.00
2023-04-22T02:21:18.341Z,100.00
2023-04-22T02:23:51.194Z,100.00
2023-04-22T02:26:21.427Z,100.00
2023-04-22T02:28:51.914Z,100.00
2023-04-22T02:31:22.433Z,100.00
2023-04-22T02:33:52.918Z,100.00
2023-04-22T02:36:23.089Z,100.00
2023-04-22T02:38:56.563Z,100.00
2023-04-22T02:41:26.756Z,100.00
2023-04-22T02:43:57.465Z,100.00
2023-04-22T02:46:28.933Z,100.00
2023-04-22T02:48:59.524Z,100.00
2023-04-22T02:51:30.423Z,100.00
2023-04-22T02:54:03.268Z,100.00
2023-04-22T02:56:33.593Z,100.00
2023-04-22T02:59:03.844Z,100.00
2023-04-22T03:01:34.303Z,100.00
2023-04-22T03:04:07.041Z,100.00
2023-04-22T03:06:37.542Z,100.00
2023-04-22T03:09:10.986Z,100.00
2023-04-22T03:11:41.108Z,100.00
2023-04-22T03:14:11.279Z,100.00
2023-04-22T03:16:42.456Z,100.00
2023-04-22T03:19:12.725Z,100.00
2023-04-22T03:21:42.865Z,100.00
2023-04-22T03:24:15.939Z,100.00
2023-04-22T03:26:51.460Z,100.00
2023-04-22T03:29:22.274Z,100.00
2023-04-22T03:31:52.513Z,100.00
2023-04-22T03:34:23.386Z,100.00
2023-04-22T03:36:54.044Z,100.00
2023-04-22T03:39:26.800Z,100.00
2023-04-22T03:41:57.068Z,100.00
2023-04-22T03:44:27.613Z,100.00
2023-04-22T03:46:58.878Z,100.00
2023-04-22T03:49:34.042Z,100.00
2023-04-22T03:52:04.405Z,100.00
2023-04-22T03:54:40.153Z,100.00
2023-04-22T03:57:10.395Z,100.00
2023-04-22T03:59:42.212Z,100.00
2023-04-22T04:02:14.845Z,100.00
2023-04-22T04:04:45.351Z,100.00
2023-04-22T04:07:16.980Z,100.00
2023-04-22T04:09:49.839Z,100.00
2023-04-22T04:12:20.503Z,100.00
2023-04-22T04:14:51.003Z,100.00
2023-04-22T04:17:26.039Z,100.00
2023-04-22T04:19:56.848Z,100.00
2023-04-22T04:22:28.364Z,100.00
2023-04-22T04:25:05.535Z,100.00
2023-04-22T04:27:39.819Z,100.00
2023-04-22T04:30:12.700Z,100.00
2023-04-22T04:32:46.565Z,100.00
2023-04-22T04:35:20.534Z,100.00
2023-04-22T04:37:55.613Z,100.00
2023-04-22T04:40:29.522Z,100.00
2023-04-22T04:43:26.163Z,100.00
2023-04-22T04:46:24.438Z,100.00
2023-04-22T04:48:55.233Z,100.00
2023-04-22T04:51:26.844Z,100.00
2023-04-22T04:54:01.065Z,100.00
2023-04-22T04:56:39.938Z,100.00
2023-04-22T04:59:12.532Z,100.00
2023-04-22T05:01:44.115Z,100.00
2023-04-22T05:04:16.469Z,100.00
2023-04-22T05:06:47.630Z,100.00
2023-04-22T05:09:18.154Z,100.00
2023-04-22T05:11:53.655Z,100.00
2023-04-22T05:14:25.841Z,100.00
2023-04-22T05:16:56.081Z,100.00
2023-04-22T05:19:26.328Z,100.00
2023-04-22T05:21:58.281Z,100.00
2023-04-22T05:24:31.157Z,100.00
2023-04-22T05:27:05.034Z,100.00
2023-04-22T05:29:35.761Z,100.00
2023-04-22T05:32:08.312Z,100.00
2023-04-22T05:34:38.569Z,100.00
2023-04-22T05:37:11.165Z,100.00
2023-04-22T05:39:46.486Z,100.00
2023-04-22T05:42:19.493Z,100.00
2023-04-22T05:44:49.788Z,100.00
2023-04-22T05:47:20.306Z,100.00
2023-04-22T05:49:50.694Z,100.00
2023-04-22T05:52:28.792Z,100.00
2023-04-22T05:55:06.210Z,100.00
2023-04-22T05:57:39.145Z,100.00
2023-04-22T06:00:17.765Z,96.00
2023-04-22T06:02:59.769Z,95.23
2023-04-22T06:05:30.133Z,86.69
2023-04-22T06:08:01.084Z,83.94
2023-04-22T06:10:31.340Z,80.46
2023-04-22T06:13:04.252Z,81.55
2023-04-22T06:15:34.677Z,79.00
2023-04-22T06:18:05.624Z,74.52
2023-04-22T06:20:36.213Z,76.65
2023-04-22T06:23:06.944Z,73.52
2023-04-22T06:25:37.234Z,73.38
2023-04-22T06:28:10.466Z,71.68
2023-04-22T06:30:41.109Z,71.17
2023-04-22T06:33:11.473Z,67.04
2023-04-22T06:35:41.751Z,63.28
2023-04-22T06:38:11.946Z,64.62
2023-04-22T06:41:08.438Z,66.50
2023-04-22T06:43:44.675Z,65.05
2023-04-22T06:46:46.911Z,61.24
2023-04-22T06:49:38.860Z,57.35
2023-04-22T06:52:39.191Z,60.26
2023-04-22T06:55:10.230Z,61.14
2023-04-22T06:57:41.544Z,60.53
2023-04-22T07:00:16.036Z,58.99
2023-04-22T07:02:49.366Z,54.88
2023-04-22T07:05:20.209Z,58.48
2023-04-22T07:07:51.597Z,56.91
2023-04-22T07:10:24.732Z,56.59
2023-04-22T07:13:24.228Z,55.54
2023-04-22T07:15:57.227Z,58.54
2023-04-22T07:18:27.428Z,55.50
2023-04-22T07:20:57.883Z,57.16
2023-04-22T07:23:28.166Z,55.27
2023-04-22T07:25:58.401Z,54.46
2023-04-22T07:28:28.668Z,56.62
2023-04-22T07:31:01.650Z,56.62
2023-04-22T07:33:31.852Z,56.42
2023-04-22T07:36:02.098Z,60.35
2023-04-22T07:38:32.314Z,58.59
2023-04-22T07:41:02.742Z,58.04
2023-04-22T07:43:33.366Z,59.79
2023-04-22T07:46:06.569Z,59.98
2023-04-22T07:48:36.811Z,59.83
2023-04-22T07:51:07.668Z,58.21
2023-04-22T08:05:18.211Z,57.93
2023-04-22T08:07:48.485Z,54.67
2023-04-22T08:10:18.686Z,54.57
2023-04-22T08:12:49.003Z,56.13
2023-04-22T08:15:19.656Z,53.46
2023-04-22T08:17:52.972Z,56.01
2023-04-22T08:20:25.908Z,55.12
2023-04-22T08:22:58.475Z,56.74
2023-04-22T08:25:28.720Z,58.43
2023-04-22T08:27:58.943Z,54.96
2023-04-22T08:30:29.458Z,52.70
2023-04-22T08:32:59.765Z,59.66
2023-04-22T08:35:32.660Z,53.60
2023-04-22T08:38:02.815Z,58.51
2023-04-22T08:40:33.202Z,53.91
2023-04-22T08:43:03.658Z,60.72
2023-04-22T08:45:34.905Z,53.81
2023-04-22T08:48:06.116Z,56.24
2023-04-22T08:50:40.876Z,51.02
2023-04-22T08:53:11.353Z,52.23
2023-04-22T08:55:42.231Z,53.33
2023-04-22T08:58:15.555Z,55.38
2023-04-22T09:00:47.629Z,54.77
2023-04-22T09:03:19.436Z,50.07
2023-04-22T09:05:54.901Z,52.90
2023-04-22T09:08:25.452Z,49.73
2023-04-22T09:10:56.151Z,53.25
2023-04-22T09:13:27.247Z,55.23
2023-04-22T09:15:59.297Z,54.71
2023-04-22T09:18:30.140Z,53.75
2023-04-22T09:21:03.110Z,52.25
2023-04-22T09:23:33.629Z,51.35
2023-04-22T09:26:04.728Z,46.21
2023-04-22T09:28:34.979Z,49.20
2023-04-22T09:31:06.765Z,47.68
2023-04-22T09:33:42.405Z,48.61
2023-04-22T09:36:15.336Z,50.36
2023-04-22T09:38:55.261Z,47.90
2023-04-22T09:41:32.292Z,48.01
2023-04-22T09:44:04.052Z,49.55
2023-04-22T09:46:36.226Z,55.42
2023-04-22T09:49:06.454Z,47.39
2023-04-22T09:51:44.037Z,52.40
2023-04-22T09:54:14.414Z,48.87
2023-04-22T09:56:49.948Z,50.02
2023-04-22T09:59:24.752Z,48.57
2023-04-22T10:01:58.071Z,44.25
2023-04-22T10:04:28.988Z,48.39
2023-04-22T10:07:02.997Z,47.64
2023-04-22T10:09:33.443Z,45.17
2023-04-22T10:12:04.075Z,43.80
2023-04-22T10:14:34.366Z,43.32
2023-04-22T10:17:06.240Z,42.94
2023-04-22T10:19:38.839Z,44.36
2023-04-22T10:22:14.535Z,40.94
2023-04-22T10:24:44.963Z,45.36
2023-04-22T10:27:15.168Z,50.34
2023-04-22T10:29:45.403Z,48.36
2023-04-22T10:32:29.497Z,48.96
2023-04-22T10:35:14.853Z,48.29
2023-04-22T10:37:49.572Z,49.37
2023-04-22T10:40:22.994Z,49.59
2023-04-22T10:42:56.042Z,49.00
2023-04-22T10:45:31.974Z,47.71
2023-04-22T10:48:07.028Z,50.06
2023-04-22T10:50:37.479Z,48.79
2023-04-22T10:53:37.374Z,49.03
2023-04-22T10:56:20.452Z,44.22
2023-04-22T10:58:52.640Z,49.36
2023-04-22T11:01:22.877Z,46.98
2023-04-22T11:03:54.788Z,49.00
2023-04-22T11:06:30.805Z,46.97
2023-04-22T11:09:13.095Z,44.71
2023-04-22T11:11:46.075Z,42.50
2023-04-22T11:14:16.537Z,44.80
2023-04-22T11:16:51.091Z,40.38
2023-04-22T11:19:21.279Z,42.87
2023-04-22T11:21:51.999Z,44.34
2023-04-22T11:24:22.333Z,45.52
2023-04-22T11:26:58.957Z,43.34
2023-04-22T11:29:29.159Z,43.40
2023-04-22T11:32:00.932Z,43.29
2023-04-22T11:34:32.769Z,47.16
2023-04-22T11:37:03.018Z,43.49
2023-04-22T11:39:50.196Z,44.83
2023-04-22T11:42:31.719Z,42.73
2023-04-22T11:45:01.894Z,44.70
2023-04-22T11:47:33.285Z,44.78
2023-04-22T11:50:05.296Z,43.53
2023-04-22T11:52:49.643Z,43.42
2023-04-22T11:55:22.566Z,44.52
2023-04-22T11:58:00.665Z,44.70
2023-04-22T12:00:34.940Z,42.48
2023-04-22T12:03:08.303Z,44.88
2023-04-22T12:05:40.780Z,45.04
2023-04-22T12:08:12.896Z,43.16
2023-04-22T12:10:45.320Z,43.34
2023-04-22T12:13:25.347Z,44.08
2023-04-22T12:15:59.078Z,45.67
2023-04-22T12:18:33.380Z,45.40
2023-04-22T12:21:04.453Z,44.82
2023-04-22T12:23:44.624Z,42.32
2023-04-22T12:26:15.814Z,41.23
2023-04-22T12:28:49.979Z,40.30
2023-04-22T12:31:21.601Z,39.51
2023-04-22T12:33:52.080Z,41.08
2023-04-22T12:36:23.749Z,41.60
2023-04-22T12:38:54.082Z,41.28
2023-04-22T12:41:24.285Z,41.73
2023-04-22T12:43:57.160Z,43.91
2023-04-22T12:46:27.440Z,44.18
2023-04-22T12:48:57.672Z,42.25
2023-04-22T12:51:27.950Z,43.88
2023-04-22T12:53:58.561Z,39.56
2023-04-22T12:56:28.945Z,42.28
2023-04-22T12:59:03.692Z,41.68
2023-04-22T13:01:35.807Z,36.97
2023-04-22T13:04:09.076Z,36.79
2023-04-22T13:06:39.344Z,40.25
2023-04-22T13:09:09.487Z,37.88
2023-04-22T13:11:39.911Z,38.99
2023-04-22T13:14:15.221Z,40.93
2023-04-22T13:16:45.432Z,39.08
2023-04-22T13:19:16.000Z,39.77
2023-04-22T13:21:46.261Z,40.24
2023-04-22T13:24:16.426Z,37.98
2023-04-22T13:26:46.734Z,39.09
2023-04-22T13:29:19.647Z,38.66
2023-04-22T13:31:49.862Z,38.16
2023-04-22T13:34:20.220Z,38.58
2023-04-22T13:36:50.550Z,41.36
2023-04-22T13:39:20.857Z,36.56
2023-04-22T13:41:51.052Z,40.41
2023-04-22T13:44:23.821Z,43.01
2023-04-22T13:46:54.174Z,40.17
2023-04-22T13:49:24.346Z,37.35
2023-04-22T13:51:54.527Z,36.63
2023-04-22T13:54:24.752Z,38.45
2023-04-22T13:56:54.993Z,39.13
2023-04-22T13:59:27.864Z,36.69
2023-04-22T14:01:58.074Z,38.18
2023-04-22T14:04:28.394Z,39.25
2023-04-22T14:06:58.737Z,38.28
2023-04-22T14:09:28.938Z,36.64
2023-04-22T14:11:59.181Z,38.77
2023-04-22T14:14:32.120Z,36.71
2023-04-22T14:17:02.463Z,41.23
2023-04-22T14:19:33.026Z,36.84
2023-04-22T14:22:03.246Z,39.57
2023-04-22T14:24:33.745Z,38.50
2023-04-22T14:27:04.636Z,36.33
2023-04-22T14:29:37.457Z,36.99
2023-04-22T14:32:10.087Z,39.91
2023-04-22T14:34:40.663Z,37.99
2023-04-22T14:37:10.948Z,38.20
2023-04-22T14:39:41.710Z,39.03
2023-04-22T14:42:12.303Z,39.82
2023-04-22T14:44:46.197Z,40.58
2023-04-22T14:47:16.471Z,36.72
2023-04-22T14:49:46.830Z,38.46
2023-04-22T14:52:18.230Z,37.12
2023-04-22T14:54:52.092Z,37.29
2023-04-22T14:57:22.583Z,36.75
2023-04-22T14:59:55.429Z,36.77
2023-04-22T15:02:25.960Z,36.83
2023-04-22T15:04:56.255Z,36.20
2023-04-22T15:07:28.926Z,36.69
2023-04-22T15:10:01.813Z,36.75
2023-04-22T15:12:32.135Z,39.32
2023-04-22T15:15:06.005Z,37.45
2023-04-22T15:17:36.296Z,39.35
2023-04-22T15:20:09.131Z,37.78
2023-04-22T15:22:41.198Z,37.85
2023-04-22T15:25:12.515Z,37.11
2023-04-22T15:27:42.726Z,37.89
2023-04-22T15:30:16.020Z,38.09
2023-04-22T15:32:45.865Z,37.21
2023-04-22T15:35:16.145Z,37.84
2023-04-22T15:37:48.536Z,38.61
2023-04-22T15:40:18.813Z,39.54
2023-04-22T15:42:49.032Z,39.04
2023-04-22T15:45:22.395Z,38.41
2023-04-22T15:47:52.599Z,39.20
2023-04-22T15:50:23.629Z,37.75
2023-04-22T15:52:54.371Z,40.96
2023-04-22T15:55:24.608Z,40.19
2023-04-22T15:57:54.874Z,38.04
2023-04-22T16:00:28.076Z,39.82
2023-04-22T16:02:58.557Z,39.45
2023-04-22T16:05:29.637Z,37.42
2023-04-22T16:07:59.781Z,41.34
2023-04-22T16:10:30.087Z,41.99
2023-04-22T16:13:00.393Z,41.38
2023-04-22T16:15:35.011Z,40.72
2023-04-22T16:18:06.690Z,40.38
2023-04-22T16:20:38.283Z,38.77
2023-04-22T16:23:08.822Z,40.79
2023-04-22T16:25:39.022Z,38.76
2023-04-22T16:28:10.630Z,40.80
2023-04-22T16:30:44.619Z,40.50
2023-04-22T16:33:15.009Z,40.38
2023-04-22T16:35:45.582Z,41.03
2023-04-22T16:38:16.940Z,40.85
2023-04-22T16:40:47.944Z,41.78
2023-04-22T16:43:18.456Z,42.78
2023-04-22T16:45:52.823Z,42.33
2023-04-22T16:48:23.157Z,42.78
2023-04-22T16:50:53.582Z,42.87
2023-04-22T16:53:24.497Z,43.03
2023-04-22T16:55:55.870Z,43.18
2023-04-22T16:58:29.159Z,44.55
2023-04-22T17:01:02.529Z,45.18
2023-04-22T17:03:34.807Z,45.37
2023-04-22T17:06:05.190Z,45.65
2023-04-22T17:08:39.718Z,47.07
2023-04-22T17:11:10.015Z,46.01
2023-04-22T17:13:43.691Z,46.96
2023-04-22T17:16:16.651Z,46.83
2023-04-22T17:18:47.369Z,47.62
2023-04-22T17:21:18.862Z,49.01
2023-04-22T17:23:49.236Z,49.78
2023-04-22T17:26:21.827Z,49.59
2023-04-22T17:28:52.869Z,50.80
2023-04-22T17:31:29.594Z,51.75
2023-04-22T17:34:00.276Z,53.95
2023-04-22T17:36:32.305Z,54.95
2023-04-22T17:39:04.509Z,54.50
2023-04-22T17:41:36.734Z,55.25
2023-04-22T17:44:09.080Z,56.85
2023-04-22T17:46:42.051Z,58.19
2023-04-22T17:49:13.847Z,59.61
2023-04-22T17:51:44.637Z,61.45
2023-04-22T17:54:15.447Z,61.78
2023-04-22T17:56:46.215Z,63.68
2023-04-22T17:59:18.072Z,65.54
2023-04-22T18:01:52.235Z,65.91
2023-04-22T18:04:25.104Z,66.68
2023-04-22T18:06:56.102Z,67.97
2023-04-22T18:09:28.431Z,69.71
2023-04-22T18:12:02.276Z,70.97
2023-04-22T18:14:33.763Z,70.48
2023-04-22T18:17:07.304Z,70.83
2023-04-22T18:19:38.303Z,69.13
2023-04-22T18:22:09.299Z,68.20
2023-04-22T18:24:43.098Z,69.18
2023-04-22T18:27:16.952Z,69.66
2023-04-22T18:29:48.166Z,69.93
2023-04-22T18:32:22.351Z,72.03
2023-04-22T18:34:53.124Z,73.45
2023-04-22T18:37:23.349Z,75.15
2023-04-22T18:39:54.199Z,76.91
2023-04-22T18:42:25.659Z,77.74
2023-04-22T18:44:56.727Z,79.08
2023-04-22T18:47:31.582Z,79.01
2023-04-22T18:50:02.996Z,79.30
2023-04-22T18:52:34.747Z,82.20
2023-04-22T18:55:05.446Z,84.87
2023-04-22T18:57:36.846Z,90.66
2023-04-22T19:00:10.854Z,92.23
2023-04-22T19:02:46.165Z,92.03
2023-04-22T19:05:18.369Z,94.96
2023-04-22T19:07:48.830Z,97.15
2023-04-22T19:10:19.706Z,98.96
2023-04-22T19:12:51.313Z,99.35
2023-04-22T19:15:24.502Z,100.00
2023-04-22T19:18:00.903Z,100.00
2023-04-22T19:20:32.117Z,99.55
2023-04-22T19:23:06.568Z,100.00
2023-04-22T19:25:37.972Z,100.00
2023-04-22T19:28:08.812Z,98.18
2023-04-22T19:30:39.348Z,96.34
2023-04-22T19:33:12.713Z,97.83
2023-04-22T19:35:43.556Z,97.74
2023-04-22T19:38:16.576Z,99.99
2023-04-22T19:40:47.369Z,100.00
2023-04-22T19:43:19.578Z,100.00
2023-04-22T19:45:54.293Z,100.00
2023-04-22T19:48:30.172Z,100.00
2023-04-22T19:51:01.155Z,100.00
2023-04-22T19:53:33.898Z,100.00
2023-04-22T19:56:07.353Z,100.00
2023-04-22T19:58:41.305Z,100.00
2023-04-22T20:01:13.255Z,100.00
2023-04-22T20:03:52.483Z,100.00
2023-04-22T20:06:25.874Z,100.00
2023-04-22T20:08:59.539Z,100.00
2023-04-22T20:11:33.505Z,100.00
2023-04-22T20:14:04.052Z,100.00
2023-04-22T20:16:37.748Z,100.00
2023-04-22T20:19:11.988Z,100.00
2023-04-22T20:21:43.275Z,100.00
2023-04-22T20:24:20.019Z,100.00
2023-04-22T20:26:51.076Z,100.00
2023-04-22T20:29:21.541Z,100.00
2023-04-22T20:31:52.874Z,100.00
2023-04-22T20:34:27.997Z,100.00
2023-04-22T20:36:59.550Z,100.00
2023-04-22T20:39:32.008Z,100.00
2023-04-22T20:42:05.705Z,100.00
2023-04-22T20:44:38.282Z,100.00
2023-04-22T20:47:09.310Z,100.00
2023-04-22T20:49:45.170Z,100.00
2023-04-22T20:52:16.678Z,100.00
2023-04-22T20:54:51.612Z,100.00
2023-04-22T20:57:24.722Z,100.00
2023-04-22T20:59:55.200Z,100.00
2023-04-22T21:02:27.271Z,100.00
2023-04-22T21:05:02.675Z,100.00
2023-04-22T21:07:33.741Z,100.00
2023-04-22T21:10:07.327Z,100.00
2023-04-22T21:12:39.891Z,100.00
2023-04-22T21:15:13.752Z,100.00
2023-04-22T21:17:55.493Z,100.00
2023-04-22T21:20:33.063Z,100.00
2023-04-22T21:23:08.048Z,100.00
2023-04-22T21:25:38.954Z,100.00
2023-04-22T21:28:09.958Z,100.00
2023-04-22T21:30:41.769Z,100.00
2023-04-22T21:33:14.525Z,98.53
2023-04-22T21:35:47.554Z,98.69
2023-04-22T21:38:19.950Z,98.53
2023-04-22T21:40:50.644Z,96.37
2023-04-22T21:43:22.529Z,97.51
2023-04-22T21:45:56.721Z,96.13
2023-04-22T21:48:27.345Z,93.77
2023-04-22T21:51:00.710Z,95.39
2023-04-22T21:53:31.932Z,95.46
2023-04-22T21:56:04.496Z,90.35
2023-04-22T21:58:36.674Z,89.89
2023-04-22T22:01:10.412Z,91.17
2023-04-22T22:03:42.149Z,92.83
2023-04-22T22:06:18.164Z,91.60
2023-04-22T22:08:49.091Z,92.22
2023-04-22T22:13:56.677Z,89.87
2023-04-22T22:16:29.607Z,88.58
2023-04-22T22:19:03.031Z,89.13
2023-04-22T22:21:39.408Z,88.74
2023-04-22T22:24:11.235Z,86.94
2023-04-22T22:26:44.501Z,86.85
2023-04-22T22:29:16.652Z,87.04
2023-04-22T22:31:49.193Z,87.76
2023-04-22T22:34:20.220Z,89.60
2023-04-22T22:36:53.179Z,90.78
2023-04-22T22:39:24.392Z,92.99
2023-04-22T22:41:56.012Z,93.03
2023-04-22T22:44:29.528Z,91.89
2023-04-22T22:47:02.019Z,90.89
2023-04-22T22:49:35.962Z,91.31
2023-04-22T22:52:15.127Z,91.46
2023-04-22T22:54:49.196Z,90.88
2023-04-22T22:57:20.257Z,91.57
2023-04-22T22:59:50.984Z,91.29
2023-04-22T23:02:22.907Z,93.09
2023-04-22T23:04:54.383Z,92.17
2023-04-22T23:07:30.654Z,92.14
2023-04-22T23:10:06.626Z,92.78
2023-04-22T23:12:37.190Z,93.98
2023-04-22T23:15:10.316Z,94.44
2023-04-22T23:17:42.123Z,93.31
2023-04-22T23:20:14.388Z,96.03
2023-04-22T23:22:51.230Z,94.95
2023-04-22T23:25:22.612Z,93.85
2023-04-22T23:27:57.419Z,93.88
2023-04-22T23:30:31.706Z,93.39
2023-04-22T23:33:06.724Z,93.23
2023-04-22T23:35:39.115Z,94.08
2023-04-22T23:38:14.877Z,94.86
2023-04-22T23:40:45.394Z,95.11
2023-04-22T23:43:17.133Z,95.40
2023-04-22T23:45:49.117Z,95.46
2023-04-22T23:48:22.078Z,96.36
2023-04-22T23:50:52.238Z,96.61
2023-04-22T23:53:25.780Z,96.41
2023-04-22T23:55:56.839Z,97.45
2023-04-22T23:58:27.558Z,97.83
